sensor_id;sensor_type;location;lat;lon;timestamp;P1;durP1;ratioP1;P2;durP2;ratioP2
68744;SDS011;66104;45.456;11.064;2023-06-14T00:02:16;5.90;;;4.10;;
68744;SDS011;66104;45.456;11.064;2023-06-14T00:04:53;5.50;;;3.90;;
68744;SDS011;66104;45.456;11.064;2023-06-14T00:07:38;7.30;;;4.50;;
68744;SDS011;66104;45.456;11.064;2023-06-14T00:10:16;8.60;;;4.60;;
68744;SDS011;66104;45.456;11.064;2023-06-14T00:12:56;6.20;;;4.50;;
68744;SDS011;66104;45.456;11.064;2023-06-14T00:15:34;6.20;;;4.40;;
68744;SDS011;66104;45.456;11.064;2023-06-14T00:18:11;7.10;;;4.30;;
68744;SDS011;66104;45.456;11.064;2023-06-14T00:20:48;7.20;;;4.40;;
68744;SDS011;66104;45.456;11.064;2023-06-14T00:23:25;7.70;;;4.60;;
68744;SDS011;66104;45.456;11.064;2023-06-14T00:26:02;5.70;;;4.30;;
68744;SDS011;66104;45.456;11.064;2023-06-14T00:28:39;6.40;;;4.30;;
68744;SDS011;66104;45.456;11.064;2023-06-14T00:31:17;6.40;;;4.30;;
68744;SDS011;66104;45.456;11.064;2023-06-14T00:33:55;5.00;;;3.90;;
68744;SDS011;66104;45.456;11.064;2023-06-14T00:36:32;5.80;;;3.90;;
68744;SDS011;66104;45.456;11.064;2023-06-14T00:39:09;6.00;;;4.50;;
68744;SDS011;66104;45.456;11.064;2023-06-14T00:41:46;5.50;;;3.80;;
68744;SDS011;66104;45.456;11.064;2023-06-14T00:44:24;5.70;;;4.10;;
68744;SDS011;66104;45.456;11.064;2023-06-14T00:47:01;7.60;;;3.90;;
68744;SDS011;66104;45.456;11.064;2023-06-14T00:49:40;7.20;;;4.10;;
68744;SDS011;66104;45.456;11.064;2023-06-14T00:52:17;4.90;;;4.10;;
68744;SDS011;66104;45.456;11.064;2023-06-14T00:54:56;6.10;;;4.60;;
68744;SDS011;66104;45.456;11.064;2023-06-14T00:57:34;5.80;;;4.30;;
68744;SDS011;66104;45.456;11.064;2023-06-14T01:00:17;6.80;;;3.60;;
68744;SDS011;66104;45.456;11.064;2023-06-14T01:02:58;6.40;;;4.00;;
68744;SDS011;66104;45.456;11.064;2023-06-14T01:05:39;5.20;;;4.10;;
68744;SDS011;66104;45.456;11.064;2023-06-14T01:08:28;7.20;;;3.90;;
68744;SDS011;66104;45.456;11.064;2023-06-14T01:11:22;7.20;;;4.00;;
68744;SDS011;66104;45.456;11.064;2023-06-14T01:14:04;8.40;;;4.30;;
68744;SDS011;66104;45.456;11.064;2023-06-14T01:16:44;5.50;;;4.10;;
68744;SDS011;66104;45.456;11.064;2023-06-14T01:19:26;7.50;;;4.40;;
68744;SDS011;66104;45.456;11.064;2023-06-14T01:22:05;6.70;;;3.70;;
68744;SDS011;66104;45.456;11.064;2023-06-14T01:24:44;4.70;;;3.40;;
68744;SDS011;66104;45.456;11.064;2023-06-14T01:27:24;6.20;;;4.00;;
68744;SDS011;66104;45.456;11.064;2023-06-14T01:30:05;5.20;;;3.80;;
68744;SDS011;66104;45.456;11.064;2023-06-14T01:32:49;5.40;;;4.20;;
68744;SDS011;66104;45.456;11.064;2023-06-14T01:35:27;6.40;;;4.00;;
68744;SDS011;66104;45.456;11.064;2023-06-14T01:38:08;5.60;;;4.30;;
68744;SDS011;66104;45.456;11.064;2023-06-14T01:40:47;5.80;;;3.90;;
68744;SDS011;66104;45.456;11.064;2023-06-14T01:43:31;5.20;;;3.80;;
68744;SDS011;66104;45.456;11.064;2023-06-14T01:46:11;6.70;;;4.40;;
68744;SDS011;66104;45.456;11.064;2023-06-14T01:48:52;8.40;;;4.40;;
68744;SDS011;66104;45.456;11.064;2023-06-14T01:51:30;5.90;;;4.30;;
68744;SDS011;66104;45.456;11.064;2023-06-14T01:54:09;7.30;;;3.70;;
68744;SDS011;66104;45.456;11.064;2023-06-14T01:56:47;5.80;;;3.70;;
68744;SDS011;66104;45.456;11.064;2023-06-14T01:59:25;5.90;;;3.90;;
68744;SDS011;66104;45.456;11.064;2023-06-14T02:02:06;6.30;;;4.00;;
68744;SDS011;66104;45.456;11.064;2023-06-14T02:04:46;5.20;;;3.90;;
68744;SDS011;66104;45.456;11.064;2023-06-14T02:07:26;5.30;;;4.10;;
68744;SDS011;66104;45.456;11.064;2023-06-14T02:10:07;5.70;;;4.20;;
68744;SDS011;66104;45.456;11.064;2023-06-14T02:12:47;6.40;;;3.70;;
68744;SDS011;66104;45.456;11.064;2023-06-14T02:15:26;4.90;;;3.80;;
68744;SDS011;66104;45.456;11.064;2023-06-14T02:18:09;5.30;;;3.90;;
68744;SDS011;66104;45.456;11.064;2023-06-14T02:22:15;6.90;;;4.10;;
68744;SDS011;66104;45.456;11.064;2023-06-14T02:24:53;6.70;;;4.10;;
68744;SDS011;66104;45.456;11.064;2023-06-14T02:27:32;5.30;;;4.00;;
68744;SDS011;66104;45.456;11.064;2023-06-14T02:30:14;6.90;;;4.10;;
68744;SDS011;66104;45.456;11.064;2023-06-14T02:32:51;5.30;;;4.10;;
68744;SDS011;66104;45.456;11.064;2023-06-14T02:35:28;6.00;;;3.80;;
68744;SDS011;66104;45.456;11.064;2023-06-14T02:38:06;5.70;;;4.40;;
68744;SDS011;66104;45.456;11.064;2023-06-14T02:40:44;8.00;;;4.20;;
68744;SDS011;66104;45.456;11.064;2023-06-14T02:43:23;5.90;;;4.60;;
68744;SDS011;66104;45.456;11.064;2023-06-14T02:46:00;6.20;;;4.30;;
68744;SDS011;66104;45.456;11.064;2023-06-14T02:48:38;5.50;;;4.20;;
68744;SDS011;66104;45.456;11.064;2023-06-14T02:51:15;5.80;;;4.20;;
68744;SDS011;66104;45.456;11.064;2023-06-14T02:53:54;5.30;;;3.90;;
68744;SDS011;66104;45.456;11.064;2023-06-14T02:56:31;5.80;;;4.10;;
68744;SDS011;66104;45.456;11.064;2023-06-14T02:59:09;8.10;;;4.10;;
68744;SDS011;66104;45.456;11.064;2023-06-14T03:01:47;7.10;;;4.70;;
68744;SDS011;66104;45.456;11.064;2023-06-14T03:04:24;10.50;;;4.60;;
68744;SDS011;66104;45.456;11.064;2023-06-14T03:07:00;6.00;;;4.30;;
68744;SDS011;66104;45.456;11.064;2023-06-14T03:09:43;6.20;;;4.60;;
68744;SDS011;66104;45.456;11.064;2023-06-14T03:12:22;4.90;;;3.70;;
68744;SDS011;66104;45.456;11.064;2023-06-14T03:14:59;8.00;;;5.00;;
68744;SDS011;66104;45.456;11.064;2023-06-14T03:17:41;6.20;;;4.80;;
68744;SDS011;66104;45.456;11.064;2023-06-14T03:20:21;6.60;;;4.30;;
68744;SDS011;66104;45.456;11.064;2023-06-14T03:23:05;6.70;;;4.70;;
68744;SDS011;66104;45.456;11.064;2023-06-14T03:25:42;5.60;;;4.20;;
68744;SDS011;66104;45.456;11.064;2023-06-14T03:28:20;5.40;;;4.40;;
68744;SDS011;66104;45.456;11.064;2023-06-14T03:30:57;6.30;;;4.70;;
68744;SDS011;66104;45.456;11.064;2023-06-14T03:33:35;7.00;;;4.40;;
68744;SDS011;66104;45.456;11.064;2023-06-14T03:36:12;4.90;;;3.80;;
68744;SDS011;66104;45.456;11.064;2023-06-14T03:38:50;5.40;;;4.30;;
68744;SDS011;66104;45.456;11.064;2023-06-14T03:41:27;6.50;;;4.60;;
68744;SDS011;66104;45.456;11.064;2023-06-14T03:44:05;7.60;;;4.10;;
68744;SDS011;66104;45.456;11.064;2023-06-14T03:46:43;6.50;;;3.90;;
68744;SDS011;66104;45.456;11.064;2023-06-14T03:49:19;6.30;;;4.40;;
68744;SDS011;66104;45.456;11.064;2023-06-14T03:51:58;5.60;;;4.10;;
68744;SDS011;66104;45.456;11.064;2023-06-14T03:54:36;5.90;;;4.00;;
68744;SDS011;66104;45.456;11.064;2023-06-14T03:57:35;7.30;;;4.30;;
68744;SDS011;66104;45.456;11.064;2023-06-14T04:00:17;6.60;;;4.30;;
68744;SDS011;66104;45.456;11.064;2023-06-14T04:02:57;6.80;;;4.70;;
68744;SDS011;66104;45.456;11.064;2023-06-14T04:05:35;7.40;;;4.70;;
68744;SDS011;66104;45.456;11.064;2023-06-14T04:08:13;7.00;;;4.10;;
68744;SDS011;66104;45.456;11.064;2023-06-14T04:10:51;8.50;;;4.40;;
68744;SDS011;66104;45.456;11.064;2023-06-14T04:13:29;5.90;;;4.20;;
68744;SDS011;66104;45.456;11.064;2023-06-14T04:16:09;6.10;;;4.70;;
68744;SDS011;66104;45.456;11.064;2023-06-14T04:18:47;5.30;;;3.90;;
68744;SDS011;66104;45.456;11.064;2023-06-14T04:21:25;7.50;;;4.80;;
68744;SDS011;66104;45.456;11.064;2023-06-14T04:24:04;5.10;;;4.40;;
68744;SDS011;66104;45.456;11.064;2023-06-14T04:26:51;5.50;;;4.30;;
68744;SDS011;66104;45.456;11.064;2023-06-14T04:29:31;7.60;;;4.80;;
68744;SDS011;66104;45.456;11.064;2023-06-14T04:32:12;6.90;;;4.20;;
68744;SDS011;66104;45.456;11.064;2023-06-14T04:34:50;6.90;;;4.30;;
68744;SDS011;66104;45.456;11.064;2023-06-14T04:37:27;10.40;;;4.90;;
68744;SDS011;66104;45.456;11.064;2023-06-14T04:40:10;9.20;;;4.70;;
68744;SDS011;66104;45.456;11.064;2023-06-14T04:42:51;8.30;;;4.00;;
68744;SDS011;66104;45.456;11.064;2023-06-14T04:45:28;5.60;;;4.50;;
68744;SDS011;66104;45.456;11.064;2023-06-14T04:48:06;5.60;;;4.00;;
68744;SDS011;66104;45.456;11.064;2023-06-14T04:50:43;6.60;;;3.90;;
68744;SDS011;66104;45.456;11.064;2023-06-14T04:53:25;8.60;;;4.30;;
68744;SDS011;66104;45.456;11.064;2023-06-14T04:56:03;6.00;;;4.20;;
68744;SDS011;66104;45.456;11.064;2023-06-14T04:58:40;8.00;;;4.50;;
68744;SDS011;66104;45.456;11.064;2023-06-14T05:01:17;12.40;;;5.20;;
68744;SDS011;66104;45.456;11.064;2023-06-14T05:03:54;9.60;;;4.70;;
68744;SDS011;66104;45.456;11.064;2023-06-14T05:06:31;8.40;;;4.40;;
68744;SDS011;66104;45.456;11.064;2023-06-14T05:09:08;5.80;;;3.90;;
68744;SDS011;66104;45.456;11.064;2023-06-14T05:11:44;8.90;;;4.80;;
68744;SDS011;66104;45.456;11.064;2023-06-14T05:14:22;7.90;;;4.20;;
68744;SDS011;66104;45.456;11.064;2023-06-14T05:17:00;9.80;;;4.50;;
68744;SDS011;66104;45.456;11.064;2023-06-14T05:19:38;9.30;;;4.90;;
68744;SDS011;66104;45.456;11.064;2023-06-14T05:22:15;9.10;;;5.50;;
68744;SDS011;66104;45.456;11.064;2023-06-14T05:24:52;10.70;;;5.10;;
68744;SDS011;66104;45.456;11.064;2023-06-14T05:27:34;10.50;;;5.00;;
68744;SDS011;66104;45.456;11.064;2023-06-14T05:30:17;7.70;;;4.70;;
68744;SDS011;66104;45.456;11.064;2023-06-14T05:32:53;6.30;;;4.00;;
68744;SDS011;66104;45.456;11.064;2023-06-14T05:35:30;8.80;;;4.20;;
68744;SDS011;66104;45.456;11.064;2023-06-14T05:38:07;8.80;;;4.80;;
68744;SDS011;66104;45.456;11.064;2023-06-14T05:40:45;7.10;;;4.40;;
68744;SDS011;66104;45.456;11.064;2023-06-14T05:43:22;8.20;;;3.90;;
68744;SDS011;66104;45.456;11.064;2023-06-14T05:46:00;6.30;;;4.30;;
68744;SDS011;66104;45.456;11.064;2023-06-14T05:48:37;9.30;;;4.40;;
68744;SDS011;66104;45.456;11.064;2023-06-14T05:51:16;9.70;;;4.30;;
68744;SDS011;66104;45.456;11.064;2023-06-14T05:53:53;9.20;;;4.60;;
68744;SDS011;66104;45.456;11.064;2023-06-14T05:56:30;7.70;;;4.40;;
68744;SDS011;66104;45.456;11.064;2023-06-14T05:59:08;7.90;;;5.00;;
68744;SDS011;66104;45.456;11.064;2023-06-14T06:01:45;9.00;;;4.70;;
68744;SDS011;66104;45.456;11.064;2023-06-14T06:04:22;8.80;;;5.00;;
68744;SDS011;66104;45.456;11.064;2023-06-14T06:07:00;11.60;;;4.80;;
68744;SDS011;66104;45.456;11.064;2023-06-14T06:09:36;8.50;;;4.80;;
68744;SDS011;66104;45.456;11.064;2023-06-14T06:12:14;8.60;;;5.10;;
68744;SDS011;66104;45.456;11.064;2023-06-14T06:14:50;7.60;;;4.70;;
68744;SDS011;66104;45.456;11.064;2023-06-14T06:17:29;7.20;;;4.90;;
68744;SDS011;66104;45.456;11.064;2023-06-14T06:20:38;9.30;;;5.60;;
68744;SDS011;66104;45.456;11.064;2023-06-14T06:23:16;9.40;;;6.50;;
68744;SDS011;66104;45.456;11.064;2023-06-14T06:25:54;9.10;;;6.50;;
68744;SDS011;66104;45.456;11.064;2023-06-14T06:28:31;10.10;;;6.90;;
68744;SDS011;66104;45.456;11.064;2023-06-14T06:31:08;12.00;;;6.20;;
68744;SDS011;66104;45.456;11.064;2023-06-14T06:33:48;9.70;;;5.90;;
68744;SDS011;66104;45.456;11.064;2023-06-14T06:36:26;11.70;;;6.10;;
68744;SDS011;66104;45.456;11.064;2023-06-14T06:39:03;11.50;;;6.60;;
68744;SDS011;66104;45.456;11.064;2023-06-14T06:41:41;10.00;;;6.10;;
68744;SDS011;66104;45.456;11.064;2023-06-14T06:44:29;10.60;;;6.60;;
68744;SDS011;66104;45.456;11.064;2023-06-14T06:47:07;11.30;;;5.70;;
68744;SDS011;66104;45.456;11.064;2023-06-14T06:49:47;12.20;;;8.30;;
68744;SDS011;66104;45.456;11.064;2023-06-14T06:52:25;13.40;;;9.80;;
68744;SDS011;66104;45.456;11.064;2023-06-14T06:55:03;11.30;;;8.00;;
68744;SDS011;66104;45.456;11.064;2023-06-14T06:57:43;11.20;;;7.70;;
68744;SDS011;66104;45.456;11.064;2023-06-14T07:00:22;9.40;;;6.80;;
68744;SDS011;66104;45.456;11.064;2023-06-14T07:03:01;10.70;;;6.60;;
68744;SDS011;66104;45.456;11.064;2023-06-14T07:05:39;9.90;;;6.20;;
68744;SDS011;66104;45.456;11.064;2023-06-14T07:08:16;9.10;;;6.50;;
68744;SDS011;66104;45.456;11.064;2023-06-14T07:10:53;9.00;;;6.20;;
68744;SDS011;66104;45.456;11.064;2023-06-14T07:13:30;10.40;;;6.00;;
68744;SDS011;66104;45.456;11.064;2023-06-14T07:16:08;10.60;;;5.80;;
68744;SDS011;66104;45.456;11.064;2023-06-14T07:18:45;10.40;;;6.40;;
68744;SDS011;66104;45.456;11.064;2023-06-14T07:21:22;7.70;;;6.10;;
68744;SDS011;66104;45.456;11.064;2023-06-14T07:23:59;10.60;;;6.10;;
68744;SDS011;66104;45.456;11.064;2023-06-14T07:26:39;9.30;;;6.00;;
68744;SDS011;66104;45.456;11.064;2023-06-14T07:29:17;12.20;;;5.60;;
68744;SDS011;66104;45.456;11.064;2023-06-14T07:31:54;9.60;;;5.50;;
68744;SDS011;66104;45.456;11.064;2023-06-14T07:34:31;10.00;;;5.80;;
68744;SDS011;66104;45.456;11.064;2023-06-14T07:37:08;8.90;;;5.50;;
68744;SDS011;66104;45.456;11.064;2023-06-14T07:39:46;7.40;;;5.40;;
68744;SDS011;66104;45.456;11.064;2023-06-14T07:42:23;10.70;;;6.50;;
68744;SDS011;66104;45.456;11.064;2023-06-14T07:45:00;10.50;;;4.90;;
68744;SDS011;66104;45.456;11.064;2023-06-14T07:47:38;10.00;;;5.40;;
68744;SDS011;66104;45.456;11.064;2023-06-14T07:50:15;7.90;;;5.00;;
68744;SDS011;66104;45.456;11.064;2023-06-14T07:52:54;6.60;;;5.20;;
68744;SDS011;66104;45.456;11.064;2023-06-14T07:55:31;6.40;;;5.00;;
68744;SDS011;66104;45.456;11.064;2023-06-14T07:58:24;9.70;;;5.40;;
68744;SDS011;66104;45.456;11.064;2023-06-14T08:01:02;8.70;;;5.50;;
68744;SDS011;66104;45.456;11.064;2023-06-14T08:03:39;8.60;;;5.40;;
68744;SDS011;66104;45.456;11.064;2023-06-14T08:06:18;9.00;;;5.30;;
68744;SDS011;66104;45.456;11.064;2023-06-14T08:08:55;8.20;;;5.60;;
68744;SDS011;66104;45.456;11.064;2023-06-14T08:11:32;7.60;;;4.80;;
68744;SDS011;66104;45.456;11.064;2023-06-14T08:14:10;6.20;;;4.80;;
68744;SDS011;66104;45.456;11.064;2023-06-14T08:16:49;6.20;;;4.40;;
68744;SDS011;66104;45.456;11.064;2023-06-14T08:19:26;9.70;;;4.50;;
68744;SDS011;66104;45.456;11.064;2023-06-14T08:22:04;6.00;;;4.10;;
68744;SDS011;66104;45.456;11.064;2023-06-14T08:24:47;7.70;;;4.70;;
68744;SDS011;66104;45.456;11.064;2023-06-14T08:27:25;6.30;;;4.10;;
68744;SDS011;66104;45.456;11.064;2023-06-14T08:30:02;7.20;;;4.70;;
68744;SDS011;66104;45.456;11.064;2023-06-14T08:32:43;7.10;;;4.30;;
68744;SDS011;66104;45.456;11.064;2023-06-14T08:35:33;8.30;;;3.90;;
68744;SDS011;66104;45.456;11.064;2023-06-14T08:38:14;6.60;;;4.30;;
68744;SDS011;66104;45.456;11.064;2023-06-14T08:40:53;5.50;;;3.80;;
68744;SDS011;66104;45.456;11.064;2023-06-14T08:43:38;5.60;;;3.70;;
68744;SDS011;66104;45.456;11.064;2023-06-14T08:46:17;6.20;;;4.00;;
68744;SDS011;66104;45.456;11.064;2023-06-14T08:48:57;8.10;;;4.60;;
68744;SDS011;66104;45.456;11.064;2023-06-14T08:51:38;7.30;;;4.00;;
68744;SDS011;66104;45.456;11.064;2023-06-14T08:54:16;7.20;;;4.30;;
68744;SDS011;66104;45.456;11.064;2023-06-14T08:56:55;5.50;;;3.80;;
68744;SDS011;66104;45.456;11.064;2023-06-14T08:59:33;6.80;;;3.30;;
68744;SDS011;66104;45.456;11.064;2023-06-14T09:02:12;4.80;;;3.50;;
68744;SDS011;66104;45.456;11.064;2023-06-14T09:04:50;6.20;;;3.90;;
68744;SDS011;66104;45.456;11.064;2023-06-14T09:07:31;5.00;;;3.70;;
68744;SDS011;66104;45.456;11.064;2023-06-14T09:10:10;5.80;;;3.80;;
68744;SDS011;66104;45.456;11.064;2023-06-14T09:12:52;5.50;;;4.20;;
68744;SDS011;66104;45.456;11.064;2023-06-14T09:15:31;6.50;;;4.00;;
68744;SDS011;66104;45.456;11.064;2023-06-14T09:18:08;7.60;;;4.00;;
68744;SDS011;66104;45.456;11.064;2023-06-14T09:20:47;5.50;;;3.60;;
68744;SDS011;66104;45.456;11.064;2023-06-14T09:23:24;5.90;;;4.10;;
68744;SDS011;66104;45.456;11.064;2023-06-14T09:26:01;4.80;;;3.80;;
68744;SDS011;66104;45.456;11.064;2023-06-14T09:28:43;6.30;;;3.70;;
68744;SDS011;66104;45.456;11.064;2023-06-14T09:31:23;6.00;;;4.20;;
68744;SDS011;66104;45.456;11.064;2023-06-14T09:34:04;6.00;;;3.90;;
68744;SDS011;66104;45.456;11.064;2023-06-14T09:36:44;6.50;;;4.00;;
68744;SDS011;66104;45.456;11.064;2023-06-14T09:39:22;5.60;;;3.80;;
68744;SDS011;66104;45.456;11.064;2023-06-14T09:42:05;7.10;;;4.10;;
68744;SDS011;66104;45.456;11.064;2023-06-14T09:44:53;5.40;;;4.00;;
68744;SDS011;66104;45.456;11.064;2023-06-14T09:47:31;5.70;;;3.90;;
68744;SDS011;66104;45.456;11.064;2023-06-14T09:50:14;6.30;;;3.80;;
68744;SDS011;66104;45.456;11.064;2023-06-14T09:52:55;6.10;;;3.80;;
68744;SDS011;66104;45.456;11.064;2023-06-14T09:55:40;6.90;;;3.70;;
68744;SDS011;66104;45.456;11.064;2023-06-14T09:58:19;6.30;;;4.30;;
68744;SDS011;66104;45.456;11.064;2023-06-14T10:00:58;8.00;;;4.10;;
68744;SDS011;66104;45.456;11.064;2023-06-14T10:03:36;6.40;;;4.00;;
68744;SDS011;66104;45.456;11.064;2023-06-14T10:06:20;6.70;;;3.50;;
68744;SDS011;66104;45.456;11.064;2023-06-14T10:08:59;7.10;;;3.80;;
68744;SDS011;66104;45.456;11.064;2023-06-14T10:11:37;5.30;;;3.90;;
68744;SDS011;66104;45.456;11.064;2023-06-14T10:14:16;4.40;;;3.50;;
68744;SDS011;66104;45.456;11.064;2023-06-14T10:17:00;5.70;;;3.70;;
68744;SDS011;66104;45.456;11.064;2023-06-14T10:19:48;4.70;;;3.40;;
68744;SDS011;66104;45.456;11.064;2023-06-14T10:22:34;7.90;;;3.70;;
68744;SDS011;66104;45.456;11.064;2023-06-14T10:25:28;5.00;;;3.60;;
68744;SDS011;66104;45.456;11.064;2023-06-14T10:28:21;5.00;;;3.70;;
68744;SDS011;66104;45.456;11.064;2023-06-14T10:31:08;7.00;;;3.90;;
68744;SDS011;66104;45.456;11.064;2023-06-14T10:33:56;5.20;;;3.70;;
68744;SDS011;66104;45.456;11.064;2023-06-14T10:36:35;4.70;;;3.40;;
68744;SDS011;66104;45.456;11.064;2023-06-14T10:39:20;4.90;;;3.80;;
68744;SDS011;66104;45.456;11.064;2023-06-14T10:42:01;5.50;;;3.90;;
68744;SDS011;66104;45.456;11.064;2023-06-14T10:44:51;5.30;;;3.90;;
68744;SDS011;66104;45.456;11.064;2023-06-14T10:47:32;5.30;;;3.50;;
68744;SDS011;66104;45.456;11.064;2023-06-14T10:50:13;5.80;;;3.40;;
68744;SDS011;66104;45.456;11.064;2023-06-14T10:52:51;5.10;;;3.30;;
68744;SDS011;66104;45.456;11.064;2023-06-14T10:55:38;4.80;;;3.40;;
68744;SDS011;66104;45.456;11.064;2023-06-14T10:58:18;5.10;;;3.40;;
68744;SDS011;66104;45.456;11.064;2023-06-14T11:00:58;4.90;;;3.30;;
68744;SDS011;66104;45.456;11.064;2023-06-14T11:03:54;6.60;;;3.50;;
68744;SDS011;66104;45.456;11.064;2023-06-14T11:06:48;4.80;;;3.30;;
68744;SDS011;66104;45.456;11.064;2023-06-14T11:09:44;5.60;;;3.50;;
68744;SDS011;66104;45.456;11.064;2023-06-14T11:12:37;4.60;;;3.20;;
68744;SDS011;66104;45.456;11.064;2023-06-14T11:15:20;5.00;;;3.80;;
68744;SDS011;66104;45.456;11.064;2023-06-14T11:18:04;5.50;;;3.60;;
68744;SDS011;66104;45.456;11.064;2023-06-14T11:20:42;4.40;;;3.40;;
68744;SDS011;66104;45.456;11.064;2023-06-14T11:23:21;5.70;;;3.60;;
68744;SDS011;66104;45.456;11.064;2023-06-14T11:25:58;5.90;;;3.30;;
68744;SDS011;66104;45.456;11.064;2023-06-14T11:28:54;4.70;;;3.20;;
68744;SDS011;66104;45.456;11.064;2023-06-14T11:31:31;4.80;;;3.20;;
68744;SDS011;66104;45.456;11.064;2023-06-14T11:34:08;4.70;;;3.50;;
68744;SDS011;66104;45.456;11.064;2023-06-14T11:36:48;4.60;;;3.40;;
68744;SDS011;66104;45.456;11.064;2023-06-14T11:39:28;6.50;;;3.90;;
68744;SDS011;66104;45.456;11.064;2023-06-14T11:42:08;6.40;;;3.80;;
68744;SDS011;66104;45.456;11.064;2023-06-14T11:44:50;6.30;;;3.60;;
68744;SDS011;66104;45.456;11.064;2023-06-14T11:47:40;4.00;;;3.10;;
68744;SDS011;66104;45.456;11.064;2023-06-14T11:50:19;6.50;;;3.40;;
68744;SDS011;66104;45.456;11.064;2023-06-14T11:52:58;6.70;;;3.80;;
68744;SDS011;66104;45.456;11.064;2023-06-14T11:55:40;4.90;;;3.70;;
68744;SDS011;66104;45.456;11.064;2023-06-14T11:58:20;5.10;;;3.90;;
68744;SDS011;66104;45.456;11.064;2023-06-14T12:00:59;6.10;;;3.70;;
68744;SDS011;66104;45.456;11.064;2023-06-14T12:03:37;5.70;;;4.00;;
68744;SDS011;66104;45.456;11.064;2023-06-14T12:06:31;7.50;;;4.50;;
68744;SDS011;66104;45.456;11.064;2023-06-14T12:09:09;6.80;;;3.90;;
68744;SDS011;66104;45.456;11.064;2023-06-14T12:11:49;5.20;;;3.30;;
68744;SDS011;66104;45.456;11.064;2023-06-14T12:14:35;6.40;;;3.80;;
68744;SDS011;66104;45.456;11.064;2023-06-14T12:17:19;7.80;;;3.90;;
68744;SDS011;66104;45.456;11.064;2023-06-14T12:19:56;6.70;;;4.10;;
68744;SDS011;66104;45.456;11.064;2023-06-14T12:22:34;5.10;;;3.90;;
68744;SDS011;66104;45.456;11.064;2023-06-14T12:25:26;4.90;;;3.90;;
68744;SDS011;66104;45.456;11.064;2023-06-14T12:28:08;7.30;;;4.30;;
68744;SDS011;66104;45.456;11.064;2023-06-14T12:30:47;5.60;;;4.00;;
68744;SDS011;66104;45.456;11.064;2023-06-14T12:33:26;6.60;;;4.10;;
68744;SDS011;66104;45.456;11.064;2023-06-14T12:36:10;5.30;;;3.90;;
68744;SDS011;66104;45.456;11.064;2023-06-14T12:38:47;7.50;;;4.50;;
68744;SDS011;66104;45.456;11.064;2023-06-14T12:41:26;5.50;;;4.30;;
68744;SDS011;66104;45.456;11.064;2023-06-14T12:44:05;5.30;;;3.90;;
68744;SDS011;66104;45.456;11.064;2023-06-14T12:46:43;7.90;;;3.80;;
68744;SDS011;66104;45.456;11.064;2023-06-14T12:49:23;5.70;;;4.30;;
68744;SDS011;66104;45.456;11.064;2023-06-14T12:52:02;8.50;;;4.50;;
68744;SDS011;66104;45.456;11.064;2023-06-14T12:54:41;9.90;;;3.90;;
68744;SDS011;66104;45.456;11.064;2023-06-14T12:57:19;7.20;;;3.90;;
68744;SDS011;66104;45.456;11.064;2023-06-14T12:59:56;4.80;;;3.90;;
68744;SDS011;66104;45.456;11.064;2023-06-14T13:02:36;6.00;;;3.90;;
68744;SDS011;66104;45.456;11.064;2023-06-14T13:05:15;5.30;;;3.90;;
68744;SDS011;66104;45.456;11.064;2023-06-14T13:07:55;6.10;;;3.70;;
68744;SDS011;66104;45.456;11.064;2023-06-14T13:10:33;6.00;;;4.20;;
68744;SDS011;66104;45.456;11.064;2023-06-14T13:13:10;6.40;;;4.00;;
68744;SDS011;66104;45.456;11.064;2023-06-14T13:15:48;5.20;;;4.10;;
68744;SDS011;66104;45.456;11.064;2023-06-14T13:18:26;8.50;;;4.40;;
68744;SDS011;66104;45.456;11.064;2023-06-14T13:21:04;6.20;;;4.60;;
68744;SDS011;66104;45.456;11.064;2023-06-14T13:23:42;6.80;;;4.30;;
68744;SDS011;66104;45.456;11.064;2023-06-14T13:26:21;6.30;;;4.20;;
68744;SDS011;66104;45.456;11.064;2023-06-14T13:28:59;5.70;;;3.50;;
68744;SDS011;66104;45.456;11.064;2023-06-14T13:31:38;6.00;;;3.80;;
68744;SDS011;66104;45.456;11.064;2023-06-14T13:34:16;7.30;;;4.30;;
68744;SDS011;66104;45.456;11.064;2023-06-14T13:36:56;5.10;;;4.00;;
68744;SDS011;66104;45.456;11.064;2023-06-14T13:39:33;5.80;;;3.80;;
68744;SDS011;66104;45.456;11.064;2023-06-14T13:42:12;5.90;;;4.10;;
68744;SDS011;66104;45.456;11.064;2023-06-14T13:44:49;5.00;;;3.40;;
68744;SDS011;66104;45.456;11.064;2023-06-14T13:47:26;4.10;;;3.40;;
68744;SDS011;66104;45.456;11.064;2023-06-14T13:50:06;6.60;;;3.90;;
68744;SDS011;66104;45.456;11.064;2023-06-14T13:52:47;6.10;;;3.80;;
68744;SDS011;66104;45.456;11.064;2023-06-14T13:55:25;5.50;;;3.40;;
68744;SDS011;66104;45.456;11.064;2023-06-14T13:58:02;5.30;;;3.80;;
68744;SDS011;66104;45.456;11.064;2023-06-14T14:00:40;4.70;;;3.50;;
68744;SDS011;66104;45.456;11.064;2023-06-14T14:03:19;6.50;;;3.70;;
68744;SDS011;66104;45.456;11.064;2023-06-14T14:05:58;6.20;;;3.70;;
68744;SDS011;66104;45.456;11.064;2023-06-14T14:08:37;6.50;;;3.90;;
68744;SDS011;66104;45.456;11.064;2023-06-14T14:11:14;9.20;;;3.60;;
68744;SDS011;66104;45.456;11.064;2023-06-14T14:13:52;7.50;;;3.60;;
68744;SDS011;66104;45.456;11.064;2023-06-14T14:16:30;5.50;;;3.70;;
68744;SDS011;66104;45.456;11.064;2023-06-14T14:19:07;7.20;;;3.60;;
68744;SDS011;66104;45.456;11.064;2023-06-14T14:21:46;5.40;;;3.70;;
68744;SDS011;66104;45.456;11.064;2023-06-14T14:24:25;5.50;;;3.50;;
68744;SDS011;66104;45.456;11.064;2023-06-14T14:27:04;6.60;;;3.70;;
68744;SDS011;66104;45.456;11.064;2023-06-14T14:29:43;7.10;;;3.50;;
68744;SDS011;66104;45.456;11.064;2023-06-14T14:32:21;6.40;;;4.30;;
68744;SDS011;66104;45.456;11.064;2023-06-14T14:34:58;6.60;;;4.40;;
68744;SDS011;66104;45.456;11.064;2023-06-14T14:37:36;8.40;;;3.80;;
68744;SDS011;66104;45.456;11.064;2023-06-14T14:40:14;4.90;;;3.70;;
68744;SDS011;66104;45.456;11.064;2023-06-14T14:42:53;6.30;;;4.20;;
68744;SDS011;66104;45.456;11.064;2023-06-14T14:45:32;5.50;;;4.30;;
68744;SDS011;66104;45.456;11.064;2023-06-14T14:48:10;7.80;;;4.30;;
68744;SDS011;66104;45.456;11.064;2023-06-14T14:50:51;5.80;;;4.10;;
68744;SDS011;66104;45.456;11.064;2023-06-14T14:53:30;7.00;;;4.00;;
68744;SDS011;66104;45.456;11.064;2023-06-14T14:56:09;5.90;;;3.80;;
68744;SDS011;66104;45.456;11.064;2023-06-14T14:58:48;4.90;;;3.70;;
68744;SDS011;66104;45.456;11.064;2023-06-14T15:01:27;6.40;;;3.50;;
68744;SDS011;66104;45.456;11.064;2023-06-14T15:04:06;9.00;;;3.80;;
68744;SDS011;66104;45.456;11.064;2023-06-14T15:06:45;7.70;;;4.30;;
68744;SDS011;66104;45.456;11.064;2023-06-14T15:09:27;5.30;;;3.70;;
68744;SDS011;66104;45.456;11.064;2023-06-14T15:12:12;7.00;;;3.80;;
68744;SDS011;66104;45.456;11.064;2023-06-14T15:14:52;6.60;;;3.70;;
68744;SDS011;66104;45.456;11.064;2023-06-14T15:17:32;6.70;;;3.70;;
68744;SDS011;66104;45.456;11.064;2023-06-14T15:20:15;5.80;;;3.70;;
68744;SDS011;66104;45.456;11.064;2023-06-14T15:22:54;6.20;;;4.20;;
68744;SDS011;66104;45.456;11.064;2023-06-14T15:25:34;6.80;;;3.80;;
68744;SDS011;66104;45.456;11.064;2023-06-14T15:28:15;5.90;;;3.70;;
68744;SDS011;66104;45.456;11.064;2023-06-14T15:30:57;6.20;;;4.20;;
68744;SDS011;66104;45.456;11.064;2023-06-14T15:33:36;6.80;;;4.20;;
68744;SDS011;66104;45.456;11.064;2023-06-14T15:36:14;7.90;;;4.10;;
68744;SDS011;66104;45.456;11.064;2023-06-14T15:38:54;7.30;;;4.40;;
68744;SDS011;66104;45.456;11.064;2023-06-14T15:41:32;8.20;;;4.50;;
68744;SDS011;66104;45.456;11.064;2023-06-14T15:44:11;8.30;;;4.40;;
68744;SDS011;66104;45.456;11.064;2023-06-14T15:46:52;5.50;;;4.10;;
68744;SDS011;66104;45.456;11.064;2023-06-14T15:49:30;8.70;;;4.30;;